Time;durP1;ratioP1;P1;durP2;ratioP2;P2;SDS_P1;SDS_P2;PMS_P1;PMS_P2;Temp;Humidity;BMP_temperature;BMP_pressure;BME280_temperature;BME280_humidity;BME280_pressure;Samples;Min_cycle;Max_cycle;Signal;HPM_P1;HPM_P2
2022/08/27 00:00:01;;;;;;;;;;;;;;;23.51;78.91;96517.69;539867;263;65111;-69
2022/08/27 00:02:34;;;;;;;;;;;;;;;23.52;78.88;96523.84;539928;262;46228;-70
2022/08/27 00:04:59;;;;;;;;;;;;;;;23.52;78.89;96516.62;539804;263;66898;-70
2022/08/27 00:07:27;;;;;;;;;;;;;;;23.51;78.89;96517.69;539871;263;62827;-70
2022/08/27 00:09:55;;;;;;;;;;;;;;;23.51;78.96;96515.01;539874;263;68763;-70
2022/08/27 00:12:23;;;;;;;;;;;;;;;23.52;78.97;96510.44;539850;263;68680;-70
2022/08/27 00:14:50;;;;;;;;;;;;;;;23.51;78.93;96512.33;539871;263;64959;-70
2022/08/27 00:17:18;;;;;;;;;;;;;;;23.52;78.91;96510.44;539918;263;68860;-70
2022/08/27 00:19:45;;;;;;;;;;;;;;;23.52;78.88;96510.44;539876;263;68594;-70
2022/08/27 00:22:13;;;;;;;;;;;;;;;23.51;78.88;96506.96;539895;262;65153;-70
2022/08/27 00:24:40;;;;;;;;;;;;;;;23.52;78.91;96513.11;539883;263;66133;-66
2022/08/27 00:27:08;;;;;;;;;;;;;;;23.51;78.87;96517.69;539887;263;68956;-67
2022/08/27 00:29:35;;;;;;;;;;;;;;;23.52;78.85;96508.57;539841;263;66113;-66
2022/08/27 00:32:03;;;;;;;;;;;;;;;23.51;78.83;96508.86;539917;263;69256;-67
2022/08/27 00:34:31;;;;;;;;;;;;;;;23.51;78.80;96514.22;539888;263;68749;-67
2022/08/27 00:36:59;;;;;;;;;;;;;;;23.51;78.80;96515.01;539858;263;62820;-67
2022/08/27 00:39:26;;;;;;;;;;;;;;;23.52;78.79;96513.11;539873;262;68789;-66
2022/08/27 00:41:53;;;;;;;;;;;;;;;23.51;78.82;96520.38;539869;263;68454;-67
2022/08/27 00:44:21;;;;;;;;;;;;;;;23.51;78.85;96517.69;539930;263;64969;-67
2022/08/27 00:46:50;;;;;;;;;;;;;;;23.51;78.88;96523.05;539900;263;68822;-66
2022/08/27 00:49:25;;;;;;;;;;;;;;;23.50;78.87;96521.48;539866;263;66732;-67
2022/08/27 00:51:54;;;;;;;;;;;;;;;23.52;78.87;96531.89;539877;263;62980;-66
2022/08/27 00:54:22;;;;;;;;;;;;;;;23.51;78.83;96525.73;539867;263;69712;-66
2022/08/27 00:56:49;;;;;;;;;;;;;;;23.51;78.81;96527.63;539902;263;68839;-66
2022/08/27 00:59:17;;;;;;;;;;;;;;;23.51;78.81;96527.63;539885;263;63133;-66
2022/08/27 01:04:32;;;;;;;;;;;;;;;23.50;79.00;96526.84;539891;263;68571;-68
2022/08/27 01:07:00;;;;;;;;;;;;;;;23.51;79.07;96530.31;539884;263;62897;-69
2022/08/27 01:09:27;;;;;;;;;;;;;;;23.50;79.11;96534.88;539891;263;66601;-69
2022/08/27 01:11:56;;;;;;;;;;;;;;;23.49;79.17;96525.27;539945;263;66288;-69
2022/08/27 01:14:25;;;;;;;;;;;;;;;23.50;79.10;96526.84;539848;263;64957;-69
2022/08/27 01:16:54;;;;;;;;;;;;;;;23.51;79.07;96524.95;539896;263;68896;-69
2022/08/27 01:19:36;;;;;;;;;;;;;;;23.50;79.02;96529.52;539854;263;69081;-69
2022/08/27 01:22:08;;;;;;;;;;;;;;;23.49;78.96;96525.27;539875;263;65065;-69
2022/08/27 01:24:40;;;;;;;;;;;;;;;23.50;78.94;96526.84;539835;263;66422;-69
2022/08/27 01:27:09;;;;;;;;;;;;;;;23.49;78.97;96523.38;539819;263;68943;-69
2022/08/27 01:29:37;;;;;;;;;;;;;;;23.48;78.95;96527.13;539878;263;62853;-69
2022/08/27 01:32:09;;;;;;;;;;;;;;;23.51;78.95;96530.31;539882;263;66490;-69
2022/08/27 01:34:36;;;;;;;;;;;;;;;23.48;78.91;96524.44;539855;263;68708;-69
2022/08/27 01:37:05;;;;;;;;;;;;;;;23.49;78.89;96523.38;539895;263;65202;-69
2022/08/27 01:39:38;;;;;;;;;;;;;;;23.49;78.84;96525.27;539901;263;68789;-69
2022/08/27 01:42:07;;;;;;;;;;;;;;;23.49;78.87;96517.22;539905;263;68914;-66
2022/08/27 01:44:42;;;;;;;;;;;;;;;23.50;78.87;96524.16;539823;263;65446;-66
2022/08/27 01:47:10;;;;;;;;;;;;;;;23.48;78.92;96527.13;539877;263;69007;-66
2022/08/27 01:49:37;;;;;;;;;;;;;;;23.49;78.94;96525.27;539902;263;68706;-67
2022/08/27 01:52:05;;;;;;;;;;;;;;;23.49;78.91;96527.95;539899;263;64908;-66
2022/08/27 01:54:33;;;;;;;;;;;;;;;23.49;78.95;96528.73;539885;263;68752;-66
2022/08/27 01:57:01;;;;;;;;;;;;;;;23.49;78.94;96526.05;539875;263;68742;-66
2022/08/27 01:59:28;;;;;;;;;;;;;;;23.48;78.92;96524.44;539879;263;65135;-66
2022/08/27 02:01:56;;;;;;;;;;;;;;;23.49;79.00;96519.90;539940;262;68684;-66
2022/08/27 02:04:24;;;;;;;;;;;;;;;23.49;79.10;96523.38;539949;263;66219;-66
2022/08/27 02:06:53;;;;;;;;;;;;;;;23.49;79.12;96525.27;539902;263;62928;-66
2022/08/27 02:09:21;;;;;;;;;;;;;;;23.49;79.18;96530.63;539902;263;68724;-66
2022/08/27 02:11:48;;;;;;;;;;;;;;;23.49;79.22;96519.90;539923;263;66274;-66
2022/08/27 02:14:16;;;;;;;;;;;;;;;23.49;79.24;96519.90;538592;263;62918;-66
2022/08/27 02:16:43;;;;;;;;;;;;;;;23.49;79.20;96525.27;534403;265;68462;-66
2022/08/27 02:19:11;;;;;;;;;;;;;;;23.49;79.19;96525.27;534328;265;68728;-66
2022/08/27 02:21:38;;;;;;;;;;;;;;;23.49;79.21;96525.27;534337;265;63016;-66
2022/08/27 02:24:06;;;;;;;;;;;;;;;23.49;79.25;96528.73;534351;265;68733;-67
2022/08/27 02:26:34;;;;;;;;;;;;;;;23.47;79.23;96536.27;534358;265;68474;-66
2022/08/27 02:29:03;;;;;;;;;;;;;;;23.48;79.25;96527.13;534375;265;64965;-66
2022/08/27 02:31:31;;;;;;;;;;;;;;;23.48;79.25;96524.44;534310;265;66526;-69
2022/08/27 02:33:59;;;;;;;;;;;;;;;23.48;79.25;96523.66;534303;265;69132;-69
2022/08/27 02:36:26;;;;;;;;;;;;;;;23.48;79.25;96526.34;534308;265;64972;-69
2022/08/27 02:38:55;;;;;;;;;;;;;;;23.48;79.27;96523.66;534337;265;68744;-69
2022/08/27 02:41:22;;;;;;;;;;;;;;;23.48;79.24;96529.02;534349;265;66607;-69
2022/08/27 02:43:50;;;;;;;;;;;;;;;23.48;79.20;96523.66;534346;265;65228;-69
2022/08/27 02:46:20;;;;;;;;;;;;;;;23.48;79.23;96524.44;534318;265;68927;-69
2022/08/27 02:48:47;;;;;;;;;;;;;;;23.48;79.32;96531.70;534303;265;68590;-69
2022/08/27 02:51:14;;;;;;;;;;;;;;;23.48;79.32;96523.66;534380;265;62859;-69
2022/08/27 02:53:42;;;;;;;;;;;;;;;23.47;79.35;96532.80;534328;265;67014;-69
2022/08/27 02:56:10;;;;;;;;;;;;;;;23.48;79.38;96531.70;534359;265;66635;-69
2022/08/27 02:58:37;;;;;;;;;;;;;;;23.48;79.41;96526.34;534032;265;66150;-69
2022/08/27 03:01:05;;;;;;;;;;;;;;;23.47;79.41;96524.76;534329;265;66666;-69
2022/08/27 03:03:33;;;;;;;;;;;;;;;23.47;79.31;96522.08;534321;265;66545;-69
2022/08/27 03:06:00;;;;;;;;;;;;;;;23.46;79.27;96520.47;534354;265;62919;-69
2022/08/27 03:08:28;;;;;;;;;;;;;;;23.47;79.21;96519.39;534360;265;66721;-69
2022/08/27 03:10:56;;;;;;;;;;;;;;;23.47;79.14;96519.39;534344;265;68824;-69
2022/08/27 03:13:25;;;;;;;;;;;;;;;23.47;79.11;96519.39;534279;265;62805;-68
2022/08/27 03:15:53;;;;;;;;;;;;;;;23.47;79.13;96522.87;539239;263;68989;-69
2022/08/27 03:18:20;;;;;;;;;;;;;;;23.48;79.15;96529.02;539879;262;68635;-69
2022/08/27 03:20:50;;;;;;;;;;;;;;;23.47;79.11;96522.87;539943;263;64971;-69
2022/08/27 03:23:18;;;;;;;;;;;;;;;23.46;79.09;96523.97;539775;263;66411;-70
2022/08/27 03:25:50;;;;;;;;;;;;;;;23.47;79.11;96530.91;539890;263;68576;-70
2022/08/27 03:28:18;;;;;;;;;;;;;;;23.46;79.09;96523.97;539901;263;62930;-70
2022/08/27 03:30:47;;;;;;;;;;;;;;;23.47;79.12;96532.80;539886;263;66611;-70
2022/08/27 03:33:14;;;;;;;;;;;;;;;23.47;79.10;96538.16;539896;263;68605;-70
2022/08/27 03:35:42;;;;;;;;;;;;;;;23.47;79.11;96538.16;539923;263;62857;-70
2022/08/27 03:38:10;;;;;;;;;;;;;;;23.46;79.08;96537.38;539877;263;68834;-70
2022/08/27 03:40:37;;;;;;;;;;;;;;;23.46;79.15;96539.24;539911;263;68348;-70
2022/08/27 03:43:05;;;;;;;;;;;;;;;23.46;79.24;96532.02;539890;263;64963;-70
2022/08/27 03:45:32;;;;;;;;;;;;;;;23.46;79.23;96540.06;539891;262;66534;-70
2022/08/27 03:48:00;;;;;;;;;;;;;;;23.47;79.28;96548.89;539914;263;66821;-67
2022/08/27 03:50:27;;;;;;;;;;;;;;;23.46;79.31;96537.38;539913;263;62731;-67
2022/08/27 03:52:55;;;;;;;;;;;;;;;23.46;79.31;96547.28;539842;263;66578;-67
2022/08/27 03:55:23;;;;;;;;;;;;;;;23.46;79.23;96548.11;539894;263;68932;-67
2022/08/27 03:57:50;;;;;;;;;;;;;;;23.45;79.10;96543.81;539887;263;64949;-66
2022/08/27 04:00:18;;;;;;;;;;;;;;;23.45;79.04;96551.86;539951;263;68928;-67
2022/08/27 04:02:45;;;;;;;;;;;;;;;23.46;79.14;96547.28;539859;263;68690;-70
2022/08/27 04:05:14;;;;;;;;;;;;;;;23.46;79.18;96558.02;539907;263;65050;-70
2022/08/27 04:07:42;;;;;;;;;;;;;;;23.46;79.23;96558.02;539884;263;66406;-69
2022/08/27 04:10:10;;;;;;;;;;;;;;;23.45;79.15;96554.55;539882;263;68648;-69
2022/08/27 04:12:38;;;;;;;;;;;;;;;23.46;79.09;96560.70;539931;263;64956;-70
2022/08/27 04:15:07;;;;;;;;;;;;;;;23.45;79.15;96559.91;539875;263;68794;-70
2022/08/27 04:17:34;;;;;;;;;;;;;;;23.46;79.13;96560.70;539857;263;66668;-69
2022/08/27 04:20:04;;;;;;;;;;;;;;;23.45;79.09;96567.95;539885;263;65004;-70
2022/08/27 04:22:32;;;;;;;;;;;;;;;23.45;79.16;96564.48;539871;263;68895;-70
2022/08/27 04:25:00;;;;;;;;;;;;;;;23.46;79.16;96563.37;539882;262;66552;-70
2022/08/27 04:27:28;;;;;;;;;;;;;;;23.44;79.11;96560.22;539926;263;63035;-69
2022/08/27 04:29:57;;;;;;;;;;;;;;;23.45;79.17;96567.16;539907;263;69044;-70
2022/08/27 04:32:26;;;;;;;;;;;;;;;23.45;79.18;96557.22;539863;263;68597;-70
2022/08/27 04:34:55;;;;;;;;;;;;;;;23.46;79.23;96558.02;539890;263;65155;-70
2022/08/27 04:37:23;;;;;;;;;;;;;;;23.45;79.23;96561.80;539857;263;66948;-69
2022/08/27 04:39:50;;;;;;;;;;;;;;;23.44;79.24;96561.01;539902;263;66543;-70
2022/08/27 04:42:18;;;;;;;;;;;;;;;23.45;79.31;96556.44;539892;263;62669;-70
2022/08/27 04:44:46;;;;;;;;;;;;;;;23.45;79.43;96561.80;539907;263;66619;-70
2022/08/27 04:47:15;;;;;;;;;;;;;;;23.44;79.70;96558.33;539868;263;66290;-70
2022/08/27 04:49:43;;;;;;;;;;;;;;;23.44;79.62;96565.59;539912;263;65132;-69
2022/08/27 04:52:10;;;;;;;;;;;;;;;23.44;79.46;96552.17;539906;263;68793;-67
2022/08/27 04:54:38;;;;;;;;;;;;;;;23.43;79.34;96556.72;539930;263;67233;-66
2022/08/27 04:57:06;;;;;;;;;;;;;;;23.44;79.32;96554.86;539903;263;62828;-67
2022/08/27 04:59:35;;;;;;;;;;;;;;;23.43;79.36;96570.13;539848;263;68792;-67
2022/08/27 05:02:04;;;;;;;;;;;;;;;23.44;79.38;96570.95;539853;263;68902;-67
2022/08/27 05:04:33;;;;;;;;;;;;;;;23.44;79.39;96569.05;539788;263;65603;-70
2022/08/27 05:07:01;;;;;;;;;;;;;;;23.44;79.37;96578.99;539900;263;68752;-70
2022/08/27 05:09:28;;;;;;;;;;;;;;;23.44;79.41;96565.59;539892;263;66822;-70
2022/08/27 05:11:56;;;;;;;;;;;;;;;23.44;79.45;96570.95;539084;263;63007;-70
2022/08/27 05:14:28;;;;;;;;;;;;;;;23.43;79.43;96570.13;538249;263;68756;-70
2022/08/27 05:16:53;;;;;;;;;;;;;;;23.44;79.45;96570.95;534169;264;68637;-70
2022/08/27 05:19:21;;;;;;;;;;;;;;;23.43;79.43;96570.13;534283;263;65062;-70
2022/08/27 05:21:50;;;;;;;;;;;;;;;23.43;79.47;96572.02;534212;265;68441;-70
2022/08/27 05:24:18;;;;;;;;;;;;;;;23.43;79.47;96575.49;534219;265;66240;-67
2022/08/27 05:26:46;;;;;;;;;;;;;;;23.44;79.49;96573.63;534187;265;65115;-67
2022/08/27 05:29:16;;;;;;;;;;;;;;;23.44;79.52;96578.99;534202;265;70856;-67
2022/08/27 05:31:45;;;;;;;;;;;;;;;23.43;79.58;96580.06;534257;265;68557;-67
2022/08/27 05:34:13;;;;;;;;;;;;;;;23.43;79.60;96564.77;534214;265;64814;-66
2022/08/27 05:36:40;;;;;;;;;;;;;;;23.43;79.64;96563.98;534173;265;66539;-66
2022/08/27 05:39:09;;;;;;;;;;;;;;;23.43;79.66;96564.77;534199;265;68634;-66
2022/08/27 05:41:36;;;;;;;;;;;;;;;23.44;79.64;96570.95;534212;265;65142;-66
2022/08/27 05:44:06;;;;;;;;;;;;;;;23.43;79.62;96570.13;534262;265;66729;-66
2022/08/27 05:46:35;;;;;;;;;;;;;;;23.42;79.67;96579.28;534222;265;68728;-67
2022/08/27 05:49:02;;;;;;;;;;;;;;;23.43;79.72;96578.17;534200;265;62804;-66
2022/08/27 05:51:31;;;;;;;;;;;;;;;23.43;79.81;96578.17;534189;265;68770;-66
2022/08/27 05:54:00;;;;;;;;;;;;;;;23.43;79.87;96580.85;534172;265;68634;-66
2022/08/27 05:56:29;;;;;;;;;;;;;;;23.43;79.95;96574.70;534193;265;65115;-66
2022/08/27 06:01:43;;;;;;;;;;;;;;;23.42;79.92;96581.95;534205;265;66598;-66
2022/08/27 06:04:11;;;;;;;;;;;;;;;23.42;79.97;96576.59;534161;265;65281;-66
2022/08/27 06:06:40;;;;;;;;;;;;;;;23.42;79.97;96570.45;534242;265;68880;-66
2022/08/27 06:09:09;;;;;;;;;;;;;;;23.41;79.96;96572.34;534241;265;68407;-66
2022/08/27 06:11:37;;;;;;;;;;;;;;;23.42;80.00;96578.48;534278;265;65023;-66
2022/08/27 06:14:05;;;;;;;;;;;;;;;23.42;80.07;96586.53;534261;265;68440;-66
2022/08/27 06:16:32;;;;;;;;;;;;;;;23.41;78.86;96582.27;534282;265;66537;-66
2022/08/27 06:19:00;;;;;;;;;;;;;;;23.41;78.51;96582.27;534332;265;63777;-66
2022/08/27 06:21:27;;;;;;;;;;;;;;;23.42;79.00;96591.89;534316;265;66260;-66
2022/08/27 06:23:55;;;;;;;;;;;;;;;23.43;79.78;96590.80;534301;265;66321;-66
2022/08/27 06:26:24;;;;;;;;;;;;;;;23.43;80.22;96591.58;534358;265;65107;-66
2022/08/27 06:28:51;;;;;;;;;;;;;;;23.44;80.45;96593.19;534302;265;68891;-68
2022/08/27 06:31:21;;;;;;;;;;;;;;;23.44;80.54;96595.08;534277;265;66392;-70
2022/08/27 06:33:52;;;;;;;;;;;;;;;23.44;80.64;96592.40;534336;265;63018;-70
2022/08/27 06:36:21;;;;;;;;;;;;;;;23.44;80.76;96593.19;534263;265;66469;-70
2022/08/27 06:38:49;;;;;;;;;;;;;;;23.45;80.81;96591.30;534348;265;66527;-67
2022/08/27 06:41:18;;;;;;;;;;;;;;;23.45;80.91;96589.41;534278;265;62888;-67
2022/08/27 06:43:46;;;;;;;;;;;;;;;23.46;80.92;96592.88;534277;265;69408;-67
2022/08/27 06:46:15;;;;;;;;;;;;;;;23.45;80.95;96589.41;534295;265;68623;-67
2022/08/27 06:48:46;;;;;;;;;;;;;;;23.46;80.97;96584.83;534346;265;65951;-67
2022/08/27 06:51:15;;;;;;;;;;;;;;;23.46;80.97;96584.83;534344;265;67307;-67
2022/08/27 06:53:45;;;;;;;;;;;;;;;23.47;81.00;96586.44;534369;265;68792;-67
2022/08/27 06:56:15;;;;;;;;;;;;;;;23.47;81.02;96591.80;534308;265;62886;-67
2022/08/27 06:58:43;;;;;;;;;;;;;;;23.48;81.01;96590.70;534198;264;66430;-67
2022/08/27 07:01:15;;;;;;;;;;;;;;;23.47;81.03;96589.91;534311;265;66515;-67
2022/08/27 07:03:42;;;;;;;;;;;;;;;23.48;81.02;96588.81;534320;265;63068;-67
2022/08/27 07:06:11;;;;;;;;;;;;;;;23.48;81.02;96588.02;534351;265;66549;-67
2022/08/27 07:08:39;;;;;;;;;;;;;;;23.49;81.03;96594.99;534311;265;69567;-67
2022/08/27 07:11:08;;;;;;;;;;;;;;;23.48;81.01;96593.38;534307;265;65106;-66
2022/08/27 07:13:38;;;;;;;;;;;;;;;23.48;81.03;96596.86;534329;265;69114;-67
2022/08/27 07:16:06;;;;;;;;;;;;;;;23.49;81.03;96594.99;539814;263;68670;-66
2022/08/27 07:18:34;;;;;;;;;;;;;;;23.49;81.02;96600.36;539937;263;65226;-66
2022/08/27 07:21:05;;;;;;;;;;;;;;;23.50;81.01;96601.94;539914;263;69021;-66
2022/08/27 07:23:33;;;;;;;;;;;;;;;23.49;81.05;96603.83;539887;263;66185;-66
2022/08/27 07:26:01;;;;;;;;;;;;;;;23.50;81.04;96599.25;539875;262;65074;-66
2022/08/27 07:28:29;;;;;;;;;;;;;;;23.50;80.94;96607.30;539888;263;68916;-67
2022/08/27 07:30:58;;;;;;;;;;;;;;;23.51;81.00;96613.45;539867;263;70130;-66
2022/08/27 07:33:25;;;;;;;;;;;;;;;23.50;80.99;96607.30;539935;263;65074;-66
2022/08/27 07:35:53;;;;;;;;;;;;;;;23.50;81.02;96609.98;539808;263;68932;-67
2022/08/27 07:38:21;;;;;;;;;;;;;;;23.51;81.01;96608.09;539887;263;66551;-67
2022/08/27 07:40:51;;;;;;;;;;;;;;;23.51;81.01;96603.52;539872;263;65048;-70
2022/08/27 07:46:04;;;;;;;;;;;;;;;23.51;81.00;96606.20;539914;263;68606;-70
2022/08/27 07:48:33;;;;;;;;;;;;;;;23.52;81.01;96602.44;539883;262;62849;-70
2022/08/27 07:51:03;;;;;;;;;;;;;;;23.51;81.00;96590.10;539874;263;68860;-70
2022/08/27 07:53:32;;;;;;;;;;;;;;;23.52;80.99;96604.30;539893;263;68731;-70
2022/08/27 07:56:04;;;;;;;;;;;;;;;23.51;81.00;96595.47;539866;263;64622;-70
2022/08/27 07:58:32;;;;;;;;;;;;;;;23.52;80.99;96596.25;539657;262;66747;-70
2022/08/27 08:00:59;;;;;;;;;;;;;;;23.51;81.01;96595.47;539855;263;68603;-70
2022/08/27 08:03:27;;;;;;;;;;;;;;;23.51;80.99;96595.47;539898;263;65112;-70
2022/08/27 08:05:56;;;;;;;;;;;;;;;23.53;80.99;96597.86;539888;263;68818;-70
2022/08/27 08:08:24;;;;;;;;;;;;;;;23.52;80.96;96598.94;539897;263;66857;-70
2022/08/27 08:10:51;;;;;;;;;;;;;;;23.53;80.95;96592.50;539852;263;62938;-70
2022/08/27 08:13:19;;;;;;;;;;;;;;;23.52;80.91;96588.21;539940;263;69027;-70
2022/08/27 08:15:46;;;;;;;;;;;;;;;23.53;80.96;96597.86;535008;263;68748;-70
2022/08/27 08:18:14;;;;;;;;;;;;;;;23.52;80.94;96593.58;534211;265;65364;-70
2022/08/27 08:20:42;;;;;;;;;;;;;;;23.53;80.93;96595.19;534192;265;68878;-70
2022/08/27 08:23:09;;;;;;;;;;;;;;;23.53;80.87;96601.34;534233;265;68609;-70
2022/08/27 08:25:37;;;;;;;;;;;;;;;23.53;80.89;96598.66;534253;265;62759;-70
2022/08/27 08:28:05;;;;;;;;;;;;;;;23.53;80.81;96601.34;534219;265;66560;-70
2022/08/27 08:30:33;;;;;;;;;;;;;;;23.54;80.87;96591.39;534218;265;68715;-70
2022/08/27 08:33:00;;;;;;;;;;;;;;;23.53;80.84;96598.66;534219;265;64984;-70
2022/08/27 08:35:28;;;;;;;;;;;;;;;23.54;80.78;96602.91;534214;265;68886;-70
2022/08/27 08:37:55;;;;;;;;;;;;;;;23.54;80.83;96599.44;534271;265;67079;-70
2022/08/27 08:40:33;;;;;;;;;;;;;;;23.53;80.84;96601.34;534182;265;62999;-70
2022/08/27 08:43:02;;;;;;;;;;;;;;;23.54;80.75;96602.13;534219;265;66534;-71
2022/08/27 08:45:33;;;;;;;;;;;;;;;23.55;80.81;96606.42;534179;265;69083;-71
2022/08/27 08:48:06;;;;;;;;;;;;;;;23.53;80.79;96604.02;534226;265;66393;-70
2022/08/27 08:50:38;;;;;;;;;;;;;;;23.54;80.79;96600.23;534146;264;66034;-71
2022/08/27 08:53:07;;;;;;;;;;;;;;;23.53;80.81;96601.34;534116;264;68956;-70
2022/08/27 08:55:39;;;;;;;;;;;;;;;23.54;80.74;96608.28;534156;264;65008;-71
2022/08/27 08:58:11;;;;;;;;;;;;;;;23.54;80.77;96613.64;534149;264;66438;-70
2022/08/27 09:00:39;;;;;;;;;;;;;;;23.54;80.76;96610.17;534181;265;68585;-70
2022/08/27 09:03:11;;;;;;;;;;;;;;;23.54;80.74;96605.59;534094;265;47205;-70
2022/08/27 09:05:39;;;;;;;;;;;;;;;23.54;80.73;96605.59;534237;265;66462;-70
2022/08/27 09:08:23;;;;;;;;;;;;;;;23.54;80.70;96602.91;534238;265;66584;-71
2022/08/27 09:10:58;;;;;;;;;;;;;;;23.54;80.74;96602.13;534194;265;65076;-70
2022/08/27 09:13:27;;;;;;;;;;;;;;;23.55;80.69;96606.42;534126;264;69146;-70
2022/08/27 09:15:56;;;;;;;;;;;;;;;23.54;80.67;96596.77;534158;263;68969;-70
2022/08/27 09:18:24;;;;;;;;;;;;;;;23.54;80.64;96602.91;534229;265;64986;-67
2022/08/27 09:20:53;;;;;;;;;;;;;;;23.55;80.70;96601.05;534203;265;66612;-67
2022/08/27 09:23:25;;;;;;;;;;;;;;;23.54;80.65;96599.44;534053;264;68667;-67
2022/08/27 09:25:52;;;;;;;;;;;;;;;23.54;80.65;96600.23;534102;264;62857;-67
2022/08/27 09:31:09;;;;;;;;;;;;;;;23.55;80.60;96603.73;534208;265;68896;-66
2022/08/27 09:33:36;;;;;;;;;;;;;;;23.54;80.62;96608.28;534183;264;65015;-67
2022/08/27 09:36:05;;;;;;;;;;;;;;;23.55;80.66;96609.09;534161;265;69607;-67
2022/08/27 09:38:34;;;;;;;;;;;;;;;23.55;80.57;96606.42;534224;265;68912;-67
2022/08/27 09:41:06;;;;;;;;;;;;;;;23.55;80.68;96603.73;534227;265;65114;-67
2022/08/27 09:43:38;;;;;;;;;;;;;;;23.55;80.58;96609.89;534190;265;67689;-67
2022/08/27 09:46:06;;;;;;;;;;;;;;;23.54;80.57;96608.28;534195;265;66897;-67
2022/08/27 09:48:35;;;;;;;;;;;;;;;23.55;80.52;96607.20;534193;265;65078;-67
2022/08/27 09:51:04;;;;;;;;;;;;;;;23.55;80.47;96601.84;534239;265;68800;-67
2022/08/27 09:53:33;;;;;;;;;;;;;;;23.55;80.43;96601.84;534166;265;68749;-67
2022/08/27 09:56:03;;;;;;;;;;;;;;;23.55;80.47;96606.42;534178;265;64904;-70
2022/08/27 09:58:33;;;;;;;;;;;;;;;23.55;80.40;96609.89;534193;265;66727;-70
2022/08/27 10:01:02;;;;;;;;;;;;;;;23.55;80.43;96609.89;534172;265;66876;-70
2022/08/27 10:03:30;;;;;;;;;;;;;;;23.55;80.40;96607.20;534139;265;62656;-70
2022/08/27 10:05:57;;;;;;;;;;;;;;;23.56;80.33;96605.31;534197;265;69005;-70
2022/08/27 10:08:27;;;;;;;;;;;;;;;23.55;80.37;96604.52;534193;265;66531;-70
2022/08/27 10:10:59;;;;;;;;;;;;;;;23.56;80.29;96600.73;534168;265;65375;-67
2022/08/27 10:13:28;;;;;;;;;;;;;;;23.55;80.31;96596.48;534204;265;68916;-67
2022/08/27 10:15:57;;;;;;;;;;;;;;;23.55;80.27;96599.16;539372;263;66600;-67
2022/08/27 10:18:26;;;;;;;;;;;;;;;23.56;80.31;96591.91;539884;263;62982;-67
2022/08/27 10:20:59;;;;;;;;;;;;;;;23.55;80.21;96599.16;538924;263;65968;-68
2022/08/27 10:23:36;;;;;;;;;;;;;;;23.56;80.23;96590.01;539921;262;66293;-67
2022/08/27 10:26:07;;;;;;;;;;;;;;;23.57;80.14;96602.34;539695;263;63725;-66
2022/08/27 10:28:43;;;;;;;;;;;;;;;23.56;80.16;96597.27;539915;263;68745;-66
2022/08/27 10:31:18;;;;;;;;;;;;;;;23.55;80.12;96585.75;539927;263;68518;-66
2022/08/27 10:33:50;;;;;;;;;;;;;;;23.56;80.08;96595.38;539785;263;65207;-69
2022/08/27 10:36:25;;;;;;;;;;;;;;;23.56;80.00;96591.91;539712;263;66174;-69
2022/08/27 10:39:00;;;;;;;;;;;;;;;23.56;79.83;96598.05;539908;263;68383;-69
2022/08/27 10:41:35;;;;;;;;;;;;;;;23.55;79.80;96596.48;539850;263;65239;-69
2022/08/27 10:44:21;;;;;;;;;;;;;;;23.57;79.73;96599.66;539912;263;66448;-70
2022/08/27 10:46:53;;;;;;;;;;;;;;;23.57;79.60;96599.66;539918;263;66483;-70
2022/08/27 10:49:22;;;;;;;;;;;;;;;23.56;79.59;96598.05;539928;263;65290;-70
2022/08/27 10:52:00;;;;;;;;;;;;;;;23.57;79.50;96602.34;539668;263;67664;-70
2022/08/27 10:54:29;;;;;;;;;;;;;;;23.56;79.46;96600.73;539758;263;66687;-70
2022/08/27 10:57:13;;;;;;;;;;;;;;;23.57;79.35;96599.66;539848;263;65493;-70
2022/08/27 10:59:43;;;;;;;;;;;;;;;23.57;79.31;96602.34;539847;262;66549;-70
2022/08/27 11:02:24;;;;;;;;;;;;;;;23.58;79.33;96592.41;539880;263;68877;-70
2022/08/27 11:04:53;;;;;;;;;;;;;;;23.58;79.30;96595.09;539907;263;62860;-70
2022/08/27 11:07:25;;;;;;;;;;;;;;;23.57;79.23;96591.62;539757;263;69131;-70
2022/08/27 11:10:03;;;;;;;;;;;;;;;23.57;79.21;96590.80;539952;263;68370;-70
2022/08/27 11:12:32;;;;;;;;;;;;;;;23.58;79.18;96593.20;539842;263;62889;-70
2022/08/27 11:15:02;;;;;;;;;;;;;;;23.58;79.04;96593.20;539888;262;68736;-70
2022/08/27 11:17:37;;;;;;;;;;;;;;;23.58;79.04;96593.20;539430;263;69002;-70
2022/08/27 11:20:15;;;;;;;;;;;;;;;23.58;79.00;96593.20;539544;263;62919;-70
2022/08/27 11:22:46;;;;;;;;;;;;;;;23.58;78.90;96593.20;539905;263;68896;-70
2022/08/27 11:25:20;;;;;;;;;;;;;;;23.59;78.88;96594.77;539918;263;65674;-70
2022/08/27 11:27:52;;;;;;;;;;;;;;;23.58;78.88;96595.88;539477;263;65197;-70
2022/08/27 11:30:37;;;;;;;;;;;;;;;23.58;78.84;96593.20;539911;263;68979;-70
2022/08/27 11:33:06;;;;;;;;;;;;;;;23.58;78.86;96593.20;539662;262;68511;-70
2022/08/27 11:35:44;;;;;;;;;;;;;;;23.59;78.82;96591.30;539832;263;61577;-70
2022/08/27 11:38:29;;;;;;;;;;;;;;;23.60;78.83;96591.02;539929;263;68280;-70
2022/08/27 11:41:15;;;;;;;;;;;;;;;23.59;78.85;96584.05;539901;263;68581;-70
2022/08/27 11:43:43;;;;;;;;;;;;;;;23.59;78.85;96584.05;539919;263;65230;-70
2022/08/27 11:46:11;;;;;;;;;;;;;;;23.59;78.86;96584.05;539878;263;66666;-70
2022/08/27 11:48:43;;;;;;;;;;;;;;;23.59;78.89;96583.26;539917;263;66350;-70
2022/08/27 11:51:13;;;;;;;;;;;;;;;23.59;78.88;96580.58;539926;263;64960;-70
2022/08/27 11:53:42;;;;;;;;;;;;;;;23.58;78.84;96577.11;539901;263;66248;-70
2022/08/27 11:56:17;;;;;;;;;;;;;;;23.59;78.86;96577.89;539894;263;69309;-70
2022/08/27 11:58:44;;;;;;;;;;;;;;;23.59;78.82;96573.31;539972;263;65407;-70
2022/08/27 12:01:16;;;;;;;;;;;;;;;23.59;78.82;96570.63;539918;263;68721;-70
2022/08/27 12:03:44;;;;;;;;;;;;;;;23.59;78.81;96565.27;539898;263;66496;-67
2022/08/27 12:06:19;;;;;;;;;;;;;;;23.59;78.77;96565.27;539891;263;63740;-67
2022/08/27 12:08:47;;;;;;;;;;;;;;;23.60;78.79;96560.70;539867;263;66243;-67
2022/08/27 12:11:31;;;;;;;;;;;;;;;23.60;78.70;96556.15;539940;263;68512;-67
2022/08/27 12:14:00;;;;;;;;;;;;;;;23.60;78.62;96553.47;539165;263;63760;-67
2022/08/27 12:16:32;;;;;;;;;;;;;;;23.60;78.62;96558.02;534256;265;66391;-67
2022/08/27 12:19:06;;;;;;;;;;;;;;;23.60;78.51;96556.15;534187;264;66292;-67
2022/08/27 12:21:48;;;;;;;;;;;;;;;23.60;78.52;96547.28;534141;264;62941;-67
2022/08/27 12:24:16;;;;;;;;;;;;;;;23.60;78.47;96548.10;534252;265;66231;-67
2022/08/27 12:26:45;;;;;;;;;;;;;;;23.61;78.58;96548.89;534117;264;68395;-70
2022/08/27 12:29:27;;;;;;;;;;;;;;;23.61;78.52;96554.26;534128;264;62832;-70
2022/08/27 12:31:53;;;;;;;;;;;;;;;23.60;78.59;96545.42;533920;264;68664;-70
2022/08/27 12:34:22;;;;;;;;;;;;;;;23.60;78.56;96542.73;534176;263;69425;-70
2022/08/27 12:36:51;;;;;;;;;;;;;;;23.61;78.59;96555.05;534217;265;64952;-70
2022/08/27 12:39:20;;;;;;;;;;;;;;;23.60;78.56;96548.10;534264;265;68374;-70
2022/08/27 12:41:49;;;;;;;;;;;;;;;23.62;78.55;96547.78;534288;265;68740;-69
2022/08/27 12:44:24;;;;;;;;;;;;;;;23.61;78.54;96540.84;534250;265;64926;-70
2022/08/27 12:46:53;;;;;;;;;;;;;;;23.61;78.58;96547.00;534088;264;68306;-69
2022/08/27 12:49:22;;;;;;;;;;;;;;;23.60;78.53;96545.42;534219;265;68348;-69
2022/08/27 12:51:52;;;;;;;;;;;;;;;23.61;78.51;96541.63;534270;265;65024;-69
2022/08/27 12:54:24;;;;;;;;;;;;;;;23.61;78.48;96538.95;534247;265;68253;-69
2022/08/27 12:56:56;;;;;;;;;;;;;;;23.61;78.45;96538.95;534260;265;67243;-69
2022/08/27 12:59:28;;;;;;;;;;;;;;;23.61;78.40;96544.31;534220;265;62905;-69
2022/08/27 13:02:00;;;;;;;;;;;;;;;23.61;78.36;96538.95;533181;265;68779;-70
2022/08/27 13:04:29;;;;;;;;;;;;;;;23.63;78.33;96544.81;534234;265;68487;-69
2022/08/27 13:06:57;;;;;;;;;;;;;;;23.62;78.29;96543.21;534210;265;65282;-69
2022/08/27 13:09:29;;;;;;;;;;;;;;;23.61;78.25;96540.84;534214;265;66425;-69